sensor_id;sensor_type;location;lat;lon;timestamp;temperature;humidity
43679;DHT22;29279;50.858;4.392;2022-07-29T00:00:39;21.00;80.60
43679;DHT22;29279;50.858;4.392;2022-07-29T00:03:04;21.00;80.70
43679;DHT22;29279;50.858;4.392;2022-07-29T00:05:30;21.00;80.60
43679;DHT22;29279;50.858;4.392;2022-07-29T00:07:56;21.10;81.20
43679;DHT22;29279;50.858;4.392;2022-07-29T00:10:22;21.00;80.60
43679;DHT22;29279;50.858;4.392;2022-07-29T00:12:48;21.00;80.50
43679;DHT22;29279;50.858;4.392;2022-07-29T00:15:14;21.00;80.40
43679;DHT22;29279;50.858;4.392;2022-07-29T00:17:39;21.10;80.50
43679;DHT22;29279;50.858;4.392;2022-07-29T00:20:06;21.10;80.50
43679;DHT22;29279;50.858;4.392;2022-07-29T00:22:32;21.10;80.40
43679;DHT22;29279;50.858;4.392;2022-07-29T00:24:57;21.00;80.60
43679;DHT22;29279;50.858;4.392;2022-07-29T00:27:23;20.90;80.80
43679;DHT22;29279;50.858;4.392;2022-07-29T00:29:49;20.90;80.90
43679;DHT22;29279;50.858;4.392;2022-07-29T00:32:14;20.80;81.00
43679;DHT22;29279;50.858;4.392;2022-07-29T00:34:40;20.80;81.10
43679;DHT22;29279;50.858;4.392;2022-07-29T00:37:25;20.80;81.10
43679;DHT22;29279;50.858;4.392;2022-07-29T00:39:50;20.70;81.30
43679;DHT22;29279;50.858;4.392;2022-07-29T00:42:16;20.70;81.40
43679;DHT22;29279;50.858;4.392;2022-07-29T00:44:42;20.70;81.40
43679;DHT22;29279;50.858;4.392;2022-07-29T00:47:09;20.60;81.50
43679;DHT22;29279;50.858;4.392;2022-07-29T00:49:35;20.50;81.70
43679;DHT22;29279;50.858;4.392;2022-07-29T00:52:05;20.50;81.90
43679;DHT22;29279;50.858;4.392;2022-07-29T00:54:32;20.50;82.00
43679;DHT22;29279;50.858;4.392;2022-07-29T00:56:59;20.50;82.10
43679;DHT22;29279;50.858;4.392;2022-07-29T00:59:26;20.50;82.20
43679;DHT22;29279;50.858;4.392;2022-07-29T01:01:52;20.40;82.70
43679;DHT22;29279;50.858;4.392;2022-07-29T01:04:19;20.40;82.50
43679;DHT22;29279;50.858;4.392;2022-07-29T01:06:45;20.30;82.70
43679;DHT22;29279;50.858;4.392;2022-07-29T01:09:12;20.20;82.80
43679;DHT22;29279;50.858;4.392;2022-07-29T01:11:38;20.20;83.20
43679;DHT22;29279;50.858;4.392;2022-07-29T01:14:05;20.20;83.30
43679;DHT22;29279;50.858;4.392;2022-07-29T01:16:35;20.20;83.30
43679;DHT22;29279;50.858;4.392;2022-07-29T01:30:35;20.10;83.70
43679;DHT22;29279;50.858;4.392;2022-07-29T01:33:06;20.00;84.30
43679;DHT22;29279;50.858;4.392;2022-07-29T01:35:39;20.00;83.80
43679;DHT22;29279;50.858;4.392;2022-07-29T01:38:19;20.00;84.00
43679;DHT22;29279;50.858;4.392;2022-07-29T01:43:23;20.00;84.20
43679;DHT22;29279;50.858;4.392;2022-07-29T01:45:56;20.00;84.20
43679;DHT22;29279;50.858;4.392;2022-07-29T01:51:07;19.90;84.90
43679;DHT22;29279;50.858;4.392;2022-07-29T01:53:55;19.90;84.50
43679;DHT22;29279;50.858;4.392;2022-07-29T01:56:24;19.80;84.70
43679;DHT22;29279;50.858;4.392;2022-07-29T01:58:52;19.80;84.70
43679;DHT22;29279;50.858;4.392;2022-07-29T02:01:19;19.70;85.00
43679;DHT22;29279;50.858;4.392;2022-07-29T02:03:46;19.60;85.30
43679;DHT22;29279;50.858;4.392;2022-07-29T02:06:16;19.60;85.60
43679;DHT22;29279;50.858;4.392;2022-07-29T02:08:43;19.50;85.60
43679;DHT22;29279;50.858;4.392;2022-07-29T02:11:11;19.50;85.60
43679;DHT22;29279;50.858;4.392;2022-07-29T02:13:37;19.40;85.90
43679;DHT22;29279;50.858;4.392;2022-07-29T02:16:05;19.50;85.80
43679;DHT22;29279;50.858;4.392;2022-07-29T02:18:33;19.50;85.70
43679;DHT22;29279;50.858;4.392;2022-07-29T02:21:03;19.50;86.00
43679;DHT22;29279;50.858;4.392;2022-07-29T02:23:31;19.40;85.80
43679;DHT22;29279;50.858;4.392;2022-07-29T02:25:58;19.40;86.00
43679;DHT22;29279;50.858;4.392;2022-07-29T02:28:27;19.40;86.20
43679;DHT22;29279;50.858;4.392;2022-07-29T02:30:56;19.40;86.10
43679;DHT22;29279;50.858;4.392;2022-07-29T02:33:24;19.40;86.30
43679;DHT22;29279;50.858;4.392;2022-07-29T02:35:50;19.30;86.40
43679;DHT22;29279;50.858;4.392;2022-07-29T02:38:18;19.30;86.40
43679;DHT22;29279;50.858;4.392;2022-07-29T02:41:05;19.30;86.50
43679;DHT22;29279;50.858;4.392;2022-07-29T02:43:33;19.20;86.70
43679;DHT22;29279;50.858;4.392;2022-07-29T02:46:04;19.30;86.70
43679;DHT22;29279;50.858;4.392;2022-07-29T02:48:59;19.20;86.70
43679;DHT22;29279;50.858;4.392;2022-07-29T02:51:51;19.20;86.90
43679;DHT22;29279;50.858;4.392;2022-07-29T02:54:26;19.10;87.30
43679;DHT22;29279;50.858;4.392;2022-07-29T02:56:54;19.10;87.40
43679;DHT22;29279;50.858;4.392;2022-07-29T02:59:25;19.10;87.60
43679;DHT22;29279;50.858;4.392;2022-07-29T03:01:52;19.00;87.40
43679;DHT22;29279;50.858;4.392;2022-07-29T03:04:19;19.00;87.60
43679;DHT22;29279;50.858;4.392;2022-07-29T03:06:48;19.00;87.80
43679;DHT22;29279;50.858;4.392;2022-07-29T03:09:15;19.00;87.70
43679;DHT22;29279;50.858;4.392;2022-07-29T03:11:41;19.00;87.80
43679;DHT22;29279;50.858;4.392;2022-07-29T03:14:07;19.00;87.90
43679;DHT22;29279;50.858;4.392;2022-07-29T03:16:33;19.00;87.70
43679;DHT22;29279;50.858;4.392;2022-07-29T03:19:02;18.90;87.90
43679;DHT22;29279;50.858;4.392;2022-07-29T03:21:29;18.90;88.20
43679;DHT22;29279;50.858;4.392;2022-07-29T03:23:54;18.90;88.20
43679;DHT22;29279;50.858;4.392;2022-07-29T03:26:20;18.90;88.50
43679;DHT22;29279;50.858;4.392;2022-07-29T03:28:46;18.90;88.40
43679;DHT22;29279;50.858;4.392;2022-07-29T03:31:12;18.90;88.30
43679;DHT22;29279;50.858;4.392;2022-07-29T03:33:37;18.90;88.30
43679;DHT22;29279;50.858;4.392;2022-07-29T03:36:03;18.90;88.50
43679;DHT22;29279;50.858;4.392;2022-07-29T03:38:30;18.90;88.50
43679;DHT22;29279;50.858;4.392;2022-07-29T03:41:01;18.90;88.70
43679;DHT22;29279;50.858;4.392;2022-07-29T03:43:31;18.80;89.20
43679;DHT22;29279;50.858;4.392;2022-07-29T03:45:57;18.80;89.00
43679;DHT22;29279;50.858;4.392;2022-07-29T03:48:26;18.80;89.40
43679;DHT22;29279;50.858;4.392;2022-07-29T03:50:55;18.70;89.40
43679;DHT22;29279;50.858;4.392;2022-07-29T03:53:21;18.70;89.50
43679;DHT22;29279;50.858;4.392;2022-07-29T03:55:52;18.70;89.70
43679;DHT22;29279;50.858;4.392;2022-07-29T03:58:18;18.80;89.90
43679;DHT22;29279;50.858;4.392;2022-07-29T04:00:45;18.70;90.00
43679;DHT22;29279;50.858;4.392;2022-07-29T04:03:12;18.70;90.10
43679;DHT22;29279;50.858;4.392;2022-07-29T04:05:38;18.70;90.10
43679;DHT22;29279;50.858;4.392;2022-07-29T04:08:04;18.70;90.20
43679;DHT22;29279;50.858;4.392;2022-07-29T04:10:30;18.70;90.10
43679;DHT22;29279;50.858;4.392;2022-07-29T04:12:56;18.70;90.20
43679;DHT22;29279;50.858;4.392;2022-07-29T04:15:22;18.70;90.20
43679;DHT22;29279;50.858;4.392;2022-07-29T04:17:47;18.70;90.30
43679;DHT22;29279;50.858;4.392;2022-07-29T04:20:13;18.70;90.30
43679;DHT22;29279;50.858;4.392;2022-07-29T04:22:40;18.70;90.20
43679;DHT22;29279;50.858;4.392;2022-07-29T04:25:06;18.60;90.40
43679;DHT22;29279;50.858;4.392;2022-07-29T04:27:31;18.60;90.50
43679;DHT22;29279;50.858;4.392;2022-07-29T04:29:57;18.60;90.50
43679;DHT22;29279;50.858;4.392;2022-07-29T04:32:24;18.60;90.60
43679;DHT22;29279;50.858;4.392;2022-07-29T04:34:49;18.60;90.80
43679;DHT22;29279;50.858;4.392;2022-07-29T04:37:15;18.50;90.80
43679;DHT22;29279;50.858;4.392;2022-07-29T04:39:41;18.60;90.80
43679;DHT22;29279;50.858;4.392;2022-07-29T04:42:06;18.50;91.00
43679;DHT22;29279;50.858;4.392;2022-07-29T04:44:32;18.50;91.00
43679;DHT22;29279;50.858;4.392;2022-07-29T04:46:57;18.50;91.10
43679;DHT22;29279;50.858;4.392;2022-07-29T04:49:24;18.50;91.20
43679;DHT22;29279;50.858;4.392;2022-07-29T04:51:49;18.50;91.10
43679;DHT22;29279;50.858;4.392;2022-07-29T04:54:15;18.50;91.30
43679;DHT22;29279;50.858;4.392;2022-07-29T04:56:41;18.50;91.30
43679;DHT22;29279;50.858;4.392;2022-07-29T04:59:07;18.50;91.40
43679;DHT22;29279;50.858;4.392;2022-07-29T05:01:33;18.50;91.40
43679;DHT22;29279;50.858;4.392;2022-07-29T05:03:59;18.50;91.40
43679;DHT22;29279;50.858;4.392;2022-07-29T05:06:24;18.60;91.50
43679;DHT22;29279;50.858;4.392;2022-07-29T05:08:50;18.60;91.40
43679;DHT22;29279;50.858;4.392;2022-07-29T05:11:16;18.50;91.50
43679;DHT22;29279;50.858;4.392;2022-07-29T05:13:41;18.60;91.60
43679;DHT22;29279;50.858;4.392;2022-07-29T05:16:08;18.60;91.60
43679;DHT22;29279;50.858;4.392;2022-07-29T05:18:34;18.60;91.70
43679;DHT22;29279;50.858;4.392;2022-07-29T05:21:00;18.60;91.70
43679;DHT22;29279;50.858;4.392;2022-07-29T05:23:26;18.70;91.60
43679;DHT22;29279;50.858;4.392;2022-07-29T05:25:51;18.70;91.60
43679;DHT22;29279;50.858;4.392;2022-07-29T05:28:17;18.70;91.70
43679;DHT22;29279;50.858;4.392;2022-07-29T05:30:43;18.80;91.70
43679;DHT22;29279;50.858;4.392;2022-07-29T05:33:10;18.80;91.60
43679;DHT22;29279;50.858;4.392;2022-07-29T05:35:36;18.90;91.60
43679;DHT22;29279;50.858;4.392;2022-07-29T05:38:03;19.00;91.40
43679;DHT22;29279;50.858;4.392;2022-07-29T05:40:28;19.00;91.40
43679;DHT22;29279;50.858;4.392;2022-07-29T05:42:54;19.20;91.40
43679;DHT22;29279;50.858;4.392;2022-07-29T05:45:20;19.20;91.30
43679;DHT22;29279;50.858;4.392;2022-07-29T05:47:46;19.30;91.20
43679;DHT22;29279;50.858;4.392;2022-07-29T05:50:12;19.40;91.20
43679;DHT22;29279;50.858;4.392;2022-07-29T05:52:38;19.20;91.20
43679;DHT22;29279;50.858;4.392;2022-07-29T05:55:04;19.20;91.20
43679;DHT22;29279;50.858;4.392;2022-07-29T05:57:31;19.20;91.30
43679;DHT22;29279;50.858;4.392;2022-07-29T05:59:56;19.20;91.30
43679;DHT22;29279;50.858;4.392;2022-07-29T06:02:22;19.20;91.30
43679;DHT22;29279;50.858;4.392;2022-07-29T06:04:48;19.20;91.30
43679;DHT22;29279;50.858;4.392;2022-07-29T06:07:14;19.30;91.40
43679;DHT22;29279;50.858;4.392;2022-07-29T06:09:41;19.30;91.30
43679;DHT22;29279;50.858;4.392;2022-07-29T06:12:07;19.40;91.40
43679;DHT22;29279;50.858;4.392;2022-07-29T06:14:33;19.40;91.40
43679;DHT22;29279;50.858;4.392;2022-07-29T06:16:59;19.50;91.20
43679;DHT22;29279;50.858;4.392;2022-07-29T06:19:25;19.60;91.10
43679;DHT22;29279;50.858;4.392;2022-07-29T06:21:51;19.70;91.00
43679;DHT22;29279;50.858;4.392;2022-07-29T06:24:16;19.80;91.00
43679;DHT22;29279;50.858;4.392;2022-07-29T06:26:42;19.90;90.90
43679;DHT22;29279;50.858;4.392;2022-07-29T06:29:08;20.00;90.90
43679;DHT22;29279;50.858;4.392;2022-07-29T06:31:36;20.00;90.70
43679;DHT22;29279;50.858;4.392;2022-07-29T06:34:02;20.10;90.60
43679;DHT22;29279;50.858;4.392;2022-07-29T06:36:29;20.10;90.50
43679;DHT22;29279;50.858;4.392;2022-07-29T06:38:54;20.20;90.50
43679;DHT22;29279;50.858;4.392;2022-07-29T06:41:20;20.20;90.50
43679;DHT22;29279;50.858;4.392;2022-07-29T06:43:46;20.20;90.50
43679;DHT22;29279;50.858;4.392;2022-07-29T06:46:14;20.20;90.50
43679;DHT22;29279;50.858;4.392;2022-07-29T06:48:41;20.30;90.40
43679;DHT22;29279;50.858;4.392;2022-07-29T06:51:10;20.40;90.40
43679;DHT22;29279;50.858;4.392;2022-07-29T06:53:39;20.50;90.30
43679;DHT22;29279;50.858;4.392;2022-07-29T06:56:06;20.70;90.10
43679;DHT22;29279;50.858;4.392;2022-07-29T06:58:34;20.90;89.90
43679;DHT22;29279;50.858;4.392;2022-07-29T07:01:05;21.10;89.60
43679;DHT22;29279;50.858;4.392;2022-07-29T07:03:31;21.30;89.20
43679;DHT22;29279;50.858;4.392;2022-07-29T07:05:57;21.50;88.40
43679;DHT22;29279;50.858;4.392;2022-07-29T07:08:23;21.70;88.20
43679;DHT22;29279;50.858;4.392;2022-07-29T07:10:52;21.70;87.80
43679;DHT22;29279;50.858;4.392;2022-07-29T07:13:18;21.90;87.70
43679;DHT22;29279;50.858;4.392;2022-07-29T07:15:45;22.10;87.20
43679;DHT22;29279;50.858;4.392;2022-07-29T07:18:13;22.20;86.60
43679;DHT22;29279;50.858;4.392;2022-07-29T07:20:39;22.30;86.50
43679;DHT22;29279;50.858;4.392;2022-07-29T07:23:05;22.30;86.60
43679;DHT22;29279;50.858;4.392;2022-07-29T07:25:31;22.30;86.40
43679;DHT22;29279;50.858;4.392;2022-07-29T07:27:56;22.20;86.60
43679;DHT22;29279;50.858;4.392;2022-07-29T07:30:22;22.20;86.70
43679;DHT22;29279;50.858;4.392;2022-07-29T07:32:48;22.10;86.80
43679;DHT22;29279;50.858;4.392;2022-07-29T07:35:13;22.00;87.20
43679;DHT22;29279;50.858;4.392;2022-07-29T07:37:39;22.00;87.30
43679;DHT22;29279;50.858;4.392;2022-07-29T07:40:09;21.90;87.60
43679;DHT22;29279;50.858;4.392;2022-07-29T07:42:37;22.10;87.60
43679;DHT22;29279;50.858;4.392;2022-07-29T07:45:04;22.00;87.20
43679;DHT22;29279;50.858;4.392;2022-07-29T07:47:31;22.00;87.50
43679;DHT22;29279;50.858;4.392;2022-07-29T07:49:57;22.00;87.50
43679;DHT22;29279;50.858;4.392;2022-07-29T07:52:22;22.10;87.50
43679;DHT22;29279;50.858;4.392;2022-07-29T07:54:48;22.20;87.30
43679;DHT22;29279;50.858;4.392;2022-07-29T07:57:15;22.30;87.20
43679;DHT22;29279;50.858;4.392;2022-07-29T07:59:41;22.30;87.30
43679;DHT22;29279;50.858;4.392;2022-07-29T08:02:07;22.40;87.30
43679;DHT22;29279;50.858;4.392;2022-07-29T08:04:33;22.50;87.20
43679;DHT22;29279;50.858;4.392;2022-07-29T08:07:00;22.60;86.90
43679;DHT22;29279;50.858;4.392;2022-07-29T08:09:27;22.60;86.90
43679;DHT22;29279;50.858;4.392;2022-07-29T08:11:53;22.70;86.90
43679;DHT22;29279;50.858;4.392;2022-07-29T08:14:19;22.70;87.00
43679;DHT22;29279;50.858;4.392;2022-07-29T08:16:45;22.80;86.90
43679;DHT22;29279;50.858;4.392;2022-07-29T08:19:11;22.90;87.00
43679;DHT22;29279;50.858;4.392;2022-07-29T08:21:37;23.00;86.40
43679;DHT22;29279;50.858;4.392;2022-07-29T08:24:03;23.10;86.60
43679;DHT22;29279;50.858;4.392;2022-07-29T08:26:47;23.20;86.10
43679;DHT22;29279;50.858;4.392;2022-07-29T08:29:13;23.40;86.60
43679;DHT22;29279;50.858;4.392;2022-07-29T08:31:39;23.50;85.70
43679;DHT22;29279;50.858;4.392;2022-07-29T08:34:05;23.60;85.20
43679;DHT22;29279;50.858;4.392;2022-07-29T08:36:32;23.70;85.10
43679;DHT22;29279;50.858;4.392;2022-07-29T08:38:59;23.80;85.00
43679;DHT22;29279;50.858;4.392;2022-07-29T08:41:25;23.90;84.80
43679;DHT22;29279;50.858;4.392;2022-07-29T08:43:51;23.90;84.40
43679;DHT22;29279;50.858;4.392;2022-07-29T08:46:18;24.10;84.50
43679;DHT22;29279;50.858;4.392;2022-07-29T08:48:44;24.20;83.70
43679;DHT22;29279;50.858;4.392;2022-07-29T08:51:18;24.30;83.50
43679;DHT22;29279;50.858;4.392;2022-07-29T08:53:45;24.50;83.40
43679;DHT22;29279;50.858;4.392;2022-07-29T08:56:14;24.70;82.80
43679;DHT22;29279;50.858;4.392;2022-07-29T08:58:40;24.70;82.20
43679;DHT22;29279;50.858;4.392;2022-07-29T09:01:07;24.80;82.30
43679;DHT22;29279;50.858;4.392;2022-07-29T09:03:36;24.90;81.70
43679;DHT22;29279;50.858;4.392;2022-07-29T09:06:03;25.10;81.20
43679;DHT22;29279;50.858;4.392;2022-07-29T09:08:30;25.10;81.20
43679;DHT22;29279;50.858;4.392;2022-07-29T09:10:57;25.40;80.60
43679;DHT22;29279;50.858;4.392;2022-07-29T09:13:23;25.50;80.10
43679;DHT22;29279;50.858;4.392;2022-07-29T09:15:50;25.70;79.60
43679;DHT22;29279;50.858;4.392;2022-07-29T09:18:39;25.90;79.30
43679;DHT22;29279;50.858;4.392;2022-07-29T09:21:06;26.10;78.90
43679;DHT22;29279;50.858;4.392;2022-07-29T09:24:11;26.20;78.60
43679;DHT22;29279;50.858;4.392;2022-07-29T09:26:43;26.50;78.20
43679;DHT22;29279;50.858;4.392;2022-07-29T09:31:37;26.60;76.80
43679;DHT22;29279;50.858;4.392;2022-07-29T09:34:04;26.70;77.10
43679;DHT22;29279;50.858;4.392;2022-07-29T09:36:30;26.90;75.80
43679;DHT22;29279;50.858;4.392;2022-07-29T09:39:00;27.10;75.00
43679;DHT22;29279;50.858;4.392;2022-07-29T09:41:27;27.40;74.80
43679;DHT22;29279;50.858;4.392;2022-07-29T09:43:58;27.60;74.80
43679;DHT22;29279;50.858;4.392;2022-07-29T09:46:25;27.60;74.70
43679;DHT22;29279;50.858;4.392;2022-07-29T09:49:11;27.80;74.10
43679;DHT22;29279;50.858;4.392;2022-07-29T09:51:38;28.10;74.00
43679;DHT22;29279;50.858;4.392;2022-07-29T09:54:25;28.30;73.20
43679;DHT22;29279;50.858;4.392;2022-07-29T09:56:52;28.50;73.10
43679;DHT22;29279;50.858;4.392;2022-07-29T09:59:19;28.90;72.40
43679;DHT22;29279;50.858;4.392;2022-07-29T10:01:48;29.20;71.40
43679;DHT22;29279;50.858;4.392;2022-07-29T10:04:15;29.40;70.90
43679;DHT22;29279;50.858;4.392;2022-07-29T10:07:01;29.30;71.40
43679;DHT22;29279;50.858;4.392;2022-07-29T10:09:30;29.70;71.40
43679;DHT22;29279;50.858;4.392;2022-07-29T10:12:23;29.90;70.20
43679;DHT22;29279;50.858;4.392;2022-07-29T10:14:49;30.10;70.00
43679;DHT22;29279;50.858;4.392;2022-07-29T10:17:16;30.20;69.30
43679;DHT22;29279;50.858;4.392;2022-07-29T10:19:42;30.60;68.60
43679;DHT22;29279;50.858;4.392;2022-07-29T10:22:10;31.00;67.80
43679;DHT22;29279;50.858;4.392;2022-07-29T10:24:37;31.20;66.50
43679;DHT22;29279;50.858;4.392;2022-07-29T10:27:07;31.30;66.00
43679;DHT22;29279;50.858;4.392;2022-07-29T10:29:33;31.40;66.00
43679;DHT22;29279;50.858;4.392;2022-07-29T10:37:46;32.40;63.50
43679;DHT22;29279;50.858;4.392;2022-07-29T10:40:29;32.60;64.20
43679;DHT22;29279;50.858;4.392;2022-07-29T10:43:19;32.40;63.10
43679;DHT22;29279;50.858;4.392;2022-07-29T10:45:48;32.70;62.20
43679;DHT22;29279;50.858;4.392;2022-07-29T10:48:15;32.90;62.90
43679;DHT22;29279;50.858;4.392;2022-07-29T10:50:59;33.20;62.20
43679;DHT22;29279;50.858;4.392;2022-07-29T10:56:28;34.40;61.60
43679;DHT22;29279;50.858;4.392;2022-07-29T11:01:53;35.80;60.10
43679;DHT22;29279;50.858;4.392;2022-07-29T11:07:10;36.50;57.50
43679;DHT22;29279;50.858;4.392;2022-07-29T11:09:37;36.90;57.60
43679;DHT22;29279;50.858;4.392;2022-07-29T11:12:19;37.30;57.00
43679;DHT22;29279;50.858;4.392;2022-07-29T11:14:59;37.80;56.20
43679;DHT22;29279;50.858;4.392;2022-07-29T11:17:27;38.10;56.00
43679;DHT22;29279;50.858;4.392;2022-07-29T11:22:57;38.40;54.70
43679;DHT22;29279;50.858;4.392;2022-07-29T11:25:23;38.20;54.80
43679;DHT22;29279;50.858;4.392;2022-07-29T11:27:49;37.40;54.10
43679;DHT22;29279;50.858;4.392;2022-07-29T11:30:15;36.20;55.30
43679;DHT22;29279;50.858;4.392;2022-07-29T11:32:42;35.50;55.80
43679;DHT22;29279;50.858;4.392;2022-07-29T11:35:19;35.10;55.60
43679;DHT22;29279;50.858;4.392;2022-07-29T11:38:24;34.40;56.40
43679;DHT22;29279;50.858;4.392;2022-07-29T11:43:48;35.70;55.00
43679;DHT22;29279;50.858;4.392;2022-07-29T11:49:02;37.10;53.80
43679;DHT22;29279;50.858;4.392;2022-07-29T11:51:28;37.60;53.50
43679;DHT22;29279;50.858;4.392;2022-07-29T11:53:55;37.60;53.40
43679;DHT22;29279;50.858;4.392;2022-07-29T11:56:23;37.30;52.40
43679;DHT22;29279;50.858;4.392;2022-07-29T11:59:00;36.80;52.80
43679;DHT22;29279;50.858;4.392;2022-07-29T12:01:26;36.40;53.50
43679;DHT22;29279;50.858;4.392;2022-07-29T12:04:03;36.40;53.70
43679;DHT22;29279;50.858;4.392;2022-07-29T12:06:29;35.90;54.00
43679;DHT22;29279;50.858;4.392;2022-07-29T12:08:55;35.20;54.60
43679;DHT22;29279;50.858;4.392;2022-07-29T12:11:20;34.70;54.80
43679;DHT22;29279;50.858;4.392;2022-07-29T12:13:46;34.10;54.60
43679;DHT22;29279;50.858;4.392;2022-07-29T12:16:12;33.90;55.20
43679;DHT22;29279;50.858;4.392;2022-07-29T12:18:38;35.00;54.80
43679;DHT22;29279;50.858;4.392;2022-07-29T12:21:03;36.30;54.00
43679;DHT22;29279;50.858;4.392;2022-07-29T12:23:32;37.20;53.10
43679;DHT22;29279;50.858;4.392;2022-07-29T12:25:59;38.20;52.70
43679;DHT22;29279;50.858;4.392;2022-07-29T12:28:25;39.00;51.80
43679;DHT22;29279;50.858;4.392;2022-07-29T12:30:51;39.80;50.90
43679;DHT22;29279;50.858;4.392;2022-07-29T12:33:18;39.90;50.30
43679;DHT22;29279;50.858;4.392;2022-07-29T12:35:53;39.60;50.80
43679;DHT22;29279;50.858;4.392;2022-07-29T12:38:20;39.50;50.40
43679;DHT22;29279;50.858;4.392;2022-07-29T12:40:46;39.80;50.70
43679;DHT22;29279;50.858;4.392;2022-07-29T12:43:25;40.10;50.10
43679;DHT22;29279;50.858;4.392;2022-07-29T12:45:54;40.00;49.70
43679;DHT22;29279;50.858;4.392;2022-07-29T12:48:37;39.90;49.80
43679;DHT22;29279;50.858;4.392;2022-07-29T12:51:04;39.90;50.00
43679;DHT22;29279;50.858;4.392;2022-07-29T12:53:31;39.20;49.40
43679;DHT22;29279;50.858;4.392;2022-07-29T12:55:58;37.80;49.30
43679;DHT22;29279;50.858;4.392;2022-07-29T12:58:35;36.60;50.30
43679;DHT22;29279;50.858;4.392;2022-07-29T13:01:10;35.80;51.20
43679;DHT22;29279;50.858;4.392;2022-07-29T13:03:57;35.30;51.80
43679;DHT22;29279;50.858;4.392;2022-07-29T13:06:44;36.30;52.20
43679;DHT22;29279;50.858;4.392;2022-07-29T13:09:16;36.60;52.30
43679;DHT22;29279;50.858;4.392;2022-07-29T13:11:48;35.70;52.00
43679;DHT22;29279;50.858;4.392;2022-07-29T13:14:35;35.30;52.50
43679;DHT22;29279;50.858;4.392;2022-07-29T13:19:48;34.00;53.20
43679;DHT22;29279;50.858;4.392;2022-07-29T13:22:20;33.50;53.60
43679;DHT22;29279;50.858;4.392;2022-07-29T13:27:13;33.00;54.40
43679;DHT22;29279;50.858;4.392;2022-07-29T13:29:38;32.90;54.60
43679;DHT22;29279;50.858;4.392;2022-07-29T13:32:05;32.70;54.60
43679;DHT22;29279;50.858;4.392;2022-07-29T13:34:31;32.60;54.50
43679;DHT22;29279;50.858;4.392;2022-07-29T13:36:57;33.90;53.80
43679;DHT22;29279;50.858;4.392;2022-07-29T13:39:22;35.70;52.60
43679;DHT22;29279;50.858;4.392;2022-07-29T13:41:48;36.90;51.50
43679;DHT22;29279;50.858;4.392;2022-07-29T13:44:14;37.20;50.30
43679;DHT22;29279;50.858;4.392;2022-07-29T13:46:40;37.60;50.10
43679;DHT22;29279;50.858;4.392;2022-07-29T13:49:06;38.00;49.70
43679;DHT22;29279;50.858;4.392;2022-07-29T13:51:31;38.50;50.20
43679;DHT22;29279;50.858;4.392;2022-07-29T13:53:57;38.80;50.20
43679;DHT22;29279;50.858;4.392;2022-07-29T13:56:23;39.00;50.20
43679;DHT22;29279;50.858;4.392;2022-07-29T13:58:49;39.20;49.20
43679;DHT22;29279;50.858;4.392;2022-07-29T14:01:14;39.30;49.30
43679;DHT22;29279;50.858;4.392;2022-07-29T14:03:40;39.70;48.90
43679;DHT22;29279;50.858;4.392;2022-07-29T14:06:08;40.00;48.40
43679;DHT22;29279;50.858;4.392;2022-07-29T14:08:34;40.10;48.20
43679;DHT22;29279;50.858;4.392;2022-07-29T14:11:00;40.10;48.00
43679;DHT22;29279;50.858;4.392;2022-07-29T14:13:25;39.80;47.80
43679;DHT22;29279;50.858;4.392;2022-07-29T14:15:51;39.80;48.20
43679;DHT22;29279;50.858;4.392;2022-07-29T14:18:17;39.90;48.30
43679;DHT22;29279;50.858;4.392;2022-07-29T14:20:43;39.60;47.60
43679;DHT22;29279;50.858;4.392;2022-07-29T14:23:08;39.30;47.50
43679;DHT22;29279;50.858;4.392;2022-07-29T14:25:34;39.00;48.10
43679;DHT22;29279;50.858;4.392;2022-07-29T14:28:00;38.70;48.60
43679;DHT22;29279;50.858;4.392;2022-07-29T14:30:26;38.60;48.80
43679;DHT22;29279;50.858;4.392;2022-07-29T14:32:51;38.70;49.00
43679;DHT22;29279;50.858;4.392;2022-07-29T14:35:17;38.60;49.00
43679;DHT22;29279;50.858;4.392;2022-07-29T14:37:43;38.50;48.80
43679;DHT22;29279;50.858;4.392;2022-07-29T14:40:09;38.20;49.20
43679;DHT22;29279;50.858;4.392;2022-07-29T14:42:35;38.20;48.60
43679;DHT22;29279;50.858;4.392;2022-07-29T14:45:07;37.90;48.90
43679;DHT22;29279;50.858;4.392;2022-07-29T14:47:33;37.70;49.20
43679;DHT22;29279;50.858;4.392;2022-07-29T14:49:59;37.40;49.70
43679;DHT22;29279;50.858;4.392;2022-07-29T14:52:25;36.40;49.80
43679;DHT22;29279;50.858;4.392;2022-07-29T14:54:51;35.60;50.70
43679;DHT22;29279;50.858;4.392;2022-07-29T14:57:16;35.50;51.10
43679;DHT22;29279;50.858;4.392;2022-07-29T14:59:42;35.60;51.00
43679;DHT22;29279;50.858;4.392;2022-07-29T15:02:08;35.80;51.00
43679;DHT22;29279;50.858;4.392;2022-07-29T15:04:34;35.70;51.10
43679;DHT22;29279;50.858;4.392;2022-07-29T15:07:00;35.10;51.60
43679;DHT22;29279;50.858;4.392;2022-07-29T15:09:25;34.40;52.00
43679;DHT22;29279;50.858;4.392;2022-07-29T15:11:51;33.90;52.70
43679;DHT22;29279;50.858;4.392;2022-07-29T15:14:17;33.60;52.80
43679;DHT22;29279;50.858;4.392;2022-07-29T15:16:43;33.50;53.00
43679;DHT22;29279;50.858;4.392;2022-07-29T15:19:09;33.60;52.90
43679;DHT22;29279;50.858;4.392;2022-07-29T15:21:35;33.60;52.70
43679;DHT22;29279;50.858;4.392;2022-07-29T15:24:00;33.40;52.80
43679;DHT22;29279;50.858;4.392;2022-07-29T15:26:26;33.30;53.00
43679;DHT22;29279;50.858;4.392;2022-07-29T15:28:52;33.10;52.80
43679;DHT22;29279;50.858;4.392;2022-07-29T15:31:18;32.70;53.50
43679;DHT22;29279;50.858;4.392;2022-07-29T15:33:46;32.80;53.80
43679;DHT22;29279;50.858;4.392;2022-07-29T15:36:12;32.80;53.90
43679;DHT22;29279;50.858;4.392;2022-07-29T15:38:38;32.80;53.70
43679;DHT22;29279;50.858;4.392;2022-07-29T15:41:06;32.80;53.60
43679;DHT22;29279;50.858;4.392;2022-07-29T15:43:32;32.90;53.40
43679;DHT22;29279;50.858;4.392;2022-07-29T15:45:58;33.00;53.60
43679;DHT22;29279;50.858;4.392;2022-07-29T15:48:47;32.90;52.80
43679;DHT22;29279;50.858;4.392;2022-07-29T15:51:12;32.60;52.10
43679;DHT22;29279;50.858;4.392;2022-07-29T15:53:38;32.50;52.40
43679;DHT22;29279;50.858;4.392;2022-07-29T15:56:04;32.50;53.00
43679;DHT22;29279;50.858;4.392;2022-07-29T15:58:29;32.50;53.20
43679;DHT22;29279;50.858;4.392;2022-07-29T16:00:55;32.50;53.30
43679;DHT22;29279;50.858;4.392;2022-07-29T16:03:21;32.60;53.30
43679;DHT22;29279;50.858;4.392;2022-07-29T16:05:47;32.60;53.80
43679;DHT22;29279;50.858;4.392;2022-07-29T16:08:13;32.90;53.40
43679;DHT22;29279;50.858;4.392;2022-07-29T16:10:39;33.00;53.50
43679;DHT22;29279;50.858;4.392;2022-07-29T16:13:05;33.00;53.40
43679;DHT22;29279;50.858;4.392;2022-07-29T16:15:31;32.90;52.50
43679;DHT22;29279;50.858;4.392;2022-07-29T16:17:56;32.70;52.30
43679;DHT22;29279;50.858;4.392;2022-07-29T16:20:22;32.70;53.40
43679;DHT22;29279;50.858;4.392;2022-07-29T16:22:48;32.80;53.00